sensor_id;sensor_type;location;lat;lon;timestamp;pressure;altitude;pressure_sealevel;temperature;humidity
5609;BME280;2826;51.354;9.588;2022-11-23T00:01:17;96601.25;;;5.46;100.00
5609;BME280;2826;51.354;9.588;2022-11-23T00:03:45;96595.28;;;5.45;100.00
5609;BME280;2826;51.354;9.588;2022-11-23T00:06:12;96588.13;;;5.52;100.00
5609;BME280;2826;51.354;9.588;2022-11-23T00:08:41;96582.28;;;5.48;100.00
5609;BME280;2826;51.354;9.588;2022-11-23T00:11:08;96590.06;;;5.47;100.00
5609;BME280;2826;51.354;9.588;2022-11-23T00:13:37;96583.47;;;5.41;100.00
5609;BME280;2826;51.354;9.588;2022-11-23T00:16:06;96581.06;;;5.36;100.00
5609;BME280;2826;51.354;9.588;2022-11-23T00:18:33;96569.75;;;5.21;100.00
5609;BME280;2826;51.354;9.588;2022-11-23T00:21:05;96586.00;;;5.22;100.00
5609;BME280;2826;51.354;9.588;2022-11-23T00:23:32;96588.78;;;5.17;100.00
5609;BME280;2826;51.354;9.588;2022-11-23T00:25:58;96591.47;;;5.14;100.00
5609;BME280;2826;51.354;9.588;2022-11-23T00:28:25;96594.16;;;5.11;100.00
5609;BME280;2826;51.354;9.588;2022-11-23T00:30:54;96605.16;;;5.15;100.00
5609;BME280;2826;51.354;9.588;2022-11-23T00:33:21;96605.94;;;5.17;100.00
5609;BME280;2826;51.354;9.588;2022-11-23T00:35:57;96598.28;;;5.15;100.00
5609;BME280;2826;51.354;9.588;2022-11-23T00:38:25;96599.19;;;5.14;100.00
5609;BME280;2826;51.354;9.588;2022-11-23T00:40:56;96597.53;;;5.13;100.00
5609;BME280;2826;51.354;9.588;2022-11-23T00:43:23;96601.75;;;5.14;100.00
5609;BME280;2826;51.354;9.588;2022-11-23T00:46:02;96599.31;;;5.11;100.00
5609;BME280;2826;51.354;9.588;2022-11-23T00:48:30;96596.75;;;5.11;100.00
5609;BME280;2826;51.354;9.588;2022-11-23T00:50:58;96576.78;;;4.97;100.00
5609;BME280;2826;51.354;9.588;2022-11-23T00:53:25;96600.28;;;5.08;100.00
5609;BME280;2826;51.354;9.588;2022-11-23T00:55:53;96601.94;;;5.09;100.00
5609;BME280;2826;51.354;9.588;2022-11-23T00:58:20;96606.25;;;5.09;100.00
5609;BME280;2826;51.354;9.588;2022-11-23T01:00:48;96602.16;;;5.05;100.00
5609;BME280;2826;51.354;9.588;2022-11-23T01:03:16;96609.91;;;5.03;100.00
5609;BME280;2826;51.354;9.588;2022-11-23T01:05:42;96602.41;;;4.99;100.00
5609;BME280;2826;51.354;9.588;2022-11-23T01:08:09;96612.75;;;4.97;100.00
5609;BME280;2826;51.354;9.588;2022-11-23T01:10:36;96612.75;;;4.97;100.00
5609;BME280;2826;51.354;9.588;2022-11-23T01:13:04;96618.03;;;4.94;100.00
5609;BME280;2826;51.354;9.588;2022-11-23T01:15:31;96613.84;;;4.91;100.00
5609;BME280;2826;51.354;9.588;2022-11-23T01:17:57;96611.34;;;4.90;100.00
5609;BME280;2826;51.354;9.588;2022-11-23T01:20:25;96616.47;;;4.90;100.00
5609;BME280;2826;51.354;9.588;2022-11-23T01:22:52;96617.38;;;4.89;100.00
5609;BME280;2826;51.354;9.588;2022-11-23T01:25:19;96622.53;;;4.89;100.00
5609;BME280;2826;51.354;9.588;2022-11-23T01:27:46;96620.00;;;4.87;100.00
5609;BME280;2826;51.354;9.588;2022-11-23T01:30:13;96614.03;;;4.87;100.00
5609;BME280;2826;51.354;9.588;2022-11-23T01:32:40;96630.34;;;4.86;100.00
5609;BME280;2826;51.354;9.588;2022-11-23T01:35:08;96626.94;;;4.85;100.00
5609;BME280;2826;51.354;9.588;2022-11-23T01:37:36;96627.78;;;4.86;100.00
5609;BME280;2826;51.354;9.588;2022-11-23T01:40:03;96630.28;;;4.87;100.00
5609;BME280;2826;51.354;9.588;2022-11-23T01:42:47;96626.00;;;4.88;100.00
5609;BME280;2826;51.354;9.588;2022-11-23T01:45:34;96630.16;;;4.90;100.00
5609;BME280;2826;51.354;9.588;2022-11-23T01:48:07;96629.19;;;4.93;100.00
5609;BME280;2826;51.354;9.588;2022-11-23T01:50:35;96627.34;;;4.96;100.00
5609;BME280;2826;51.354;9.588;2022-11-23T01:53:04;96625.59;;;4.97;100.00
5609;BME280;2826;51.354;9.588;2022-11-23T01:55:32;96627.16;;;5.01;100.00
5609;BME280;2826;51.354;9.588;2022-11-23T01:58:01;96633.94;;;5.02;100.00
5609;BME280;2826;51.354;9.588;2022-11-23T02:00:28;96628.88;;;5.01;100.00
5609;BME280;2826;51.354;9.588;2022-11-23T02:02:56;96631.38;;;5.02;100.00
5609;BME280;2826;51.354;9.588;2022-11-23T02:05:27;96635.72;;;5.00;100.00
5609;BME280;2826;51.354;9.588;2022-11-23T02:07:57;96634.75;;;5.03;100.00
5609;BME280;2826;51.354;9.588;2022-11-23T02:10:27;96637.22;;;5.06;100.00
5609;BME280;2826;51.354;9.588;2022-11-23T02:12:59;96632.91;;;5.06;100.00
5609;BME280;2826;51.354;9.588;2022-11-23T02:15:26;96632.00;;;5.07;100.00
5609;BME280;2826;51.354;9.588;2022-11-23T02:17:53;96624.31;;;5.07;100.00
5609;BME280;2826;51.354;9.588;2022-11-23T02:20:21;96624.25;;;5.09;100.00
5609;BME280;2826;51.354;9.588;2022-11-23T02:22:54;96616.59;;;5.07;100.00
5609;BME280;2826;51.354;9.588;2022-11-23T02:25:34;96618.38;;;5.05;100.00
5609;BME280;2826;51.354;9.588;2022-11-23T02:28:05;96617.56;;;5.05;100.00
5609;BME280;2826;51.354;9.588;2022-11-23T02:30:34;96608.44;;;4.97;100.00
5609;BME280;2826;51.354;9.588;2022-11-23T02:33:02;96621.16;;;5.01;100.00
5609;BME280;2826;51.354;9.588;2022-11-23T02:35:29;96620.25;;;5.02;100.00
5609;BME280;2826;51.354;9.588;2022-11-23T02:37:58;96622.81;;;5.02;100.00
5609;BME280;2826;51.354;9.588;2022-11-23T02:40:30;96618.59;;;5.01;100.00
5609;BME280;2826;51.354;9.588;2022-11-23T02:42:58;96610.03;;;5.00;100.00
5609;BME280;2826;51.354;9.588;2022-11-23T02:45:34;96616.94;;;5.00;100.00
5609;BME280;2826;51.354;9.588;2022-11-23T02:48:02;96610.94;;;4.99;100.00
5609;BME280;2826;51.354;9.588;2022-11-23T02:50:30;96616.78;;;5.03;100.00
5609;BME280;2826;51.354;9.588;2022-11-23T02:52:59;96615.91;;;5.04;100.00
5609;BME280;2826;51.354;9.588;2022-11-23T02:55:27;96611.66;;;5.03;100.00
5609;BME280;2826;51.354;9.588;2022-11-23T02:57:54;96627.16;;;5.01;100.00
5609;BME280;2826;51.354;9.588;2022-11-23T03:00:21;96623.03;;;4.97;100.00
5609;BME280;2826;51.354;9.588;2022-11-23T03:02:49;96621.63;;;4.90;100.00
5609;BME280;2826;51.354;9.588;2022-11-23T03:05:16;96619.81;;;4.92;100.00
5609;BME280;2826;51.354;9.588;2022-11-23T03:07:43;96627.44;;;4.93;100.00
5609;BME280;2826;51.354;9.588;2022-11-23T03:10:12;96617.06;;;4.96;100.00
5609;BME280;2826;51.354;9.588;2022-11-23T03:12:39;96622.19;;;4.96;100.00
5609;BME280;2826;51.354;9.588;2022-11-23T03:15:07;96624.00;;;4.94;100.00
5609;BME280;2826;51.354;9.588;2022-11-23T03:17:37;96625.72;;;4.94;100.00
5609;BME280;2826;51.354;9.588;2022-11-23T03:20:09;96624.81;;;4.95;100.00
5609;BME280;2826;51.354;9.588;2022-11-23T03:22:40;96620.59;;;4.94;100.00
5609;BME280;2826;51.354;9.588;2022-11-23T03:25:09;96620.47;;;4.97;100.00
5609;BME280;2826;51.354;9.588;2022-11-23T03:27:39;96612.81;;;4.95;100.00
5609;BME280;2826;51.354;9.588;2022-11-23T03:30:08;96609.41;;;4.95;100.00
5609;BME280;2826;51.354;9.588;2022-11-23T03:32:35;96599.53;;;4.86;100.00
5609;BME280;2826;51.354;9.588;2022-11-23T03:35:03;96619.63;;;4.96;100.00
5609;BME280;2826;51.354;9.588;2022-11-23T03:37:34;96616.22;;;4.96;100.00
5609;BME280;2826;51.354;9.588;2022-11-23T03:40:02;96608.78;;;4.90;100.00
5609;BME280;2826;51.354;9.588;2022-11-23T03:42:48;96625.50;;;4.99;100.00
5609;BME280;2826;51.354;9.588;2022-11-23T03:45:15;96621.16;;;5.01;100.00
5609;BME280;2826;51.354;9.588;2022-11-23T03:47:43;96622.88;;;5.00;100.00
5609;BME280;2826;51.354;9.588;2022-11-23T03:50:10;96632.06;;;5.06;100.00
5609;BME280;2826;51.354;9.588;2022-11-23T03:52:38;96637.91;;;5.09;100.00
5609;BME280;2826;51.354;9.588;2022-11-23T03:55:06;96637.84;;;5.11;100.00
5609;BME280;2826;51.354;9.588;2022-11-23T03:57:34;96639.50;;;5.12;100.00
5609;BME280;2826;51.354;9.588;2022-11-23T04:00:03;96636.94;;;5.12;100.00
5609;BME280;2826;51.354;9.588;2022-11-23T04:02:39;96636.13;;;5.12;100.00
5609;BME280;2826;51.354;9.588;2022-11-23T04:05:12;96630.03;;;5.14;100.00
5609;BME280;2826;51.354;9.588;2022-11-23T04:08:04;96634.25;;;5.15;100.00
5609;BME280;2826;51.354;9.588;2022-11-23T04:10:31;96637.66;;;5.16;100.00
5609;BME280;2826;51.354;9.588;2022-11-23T04:13:05;96629.91;;;5.17;100.00
5609;BME280;2826;51.354;9.588;2022-11-23T04:15:32;96636.69;;;5.18;100.00
5609;BME280;2826;51.354;9.588;2022-11-23T04:17:59;96634.19;;;5.17;100.00
5609;BME280;2826;51.354;9.588;2022-11-23T04:20:26;96639.41;;;5.15;100.00
5609;BME280;2826;51.354;9.588;2022-11-23T04:22:53;96636.81;;;5.15;100.00
5609;BME280;2826;51.354;9.588;2022-11-23T04:25:21;96633.28;;;5.18;100.00
5609;BME280;2826;51.354;9.588;2022-11-23T04:27:50;96639.22;;;5.20;100.00
5609;BME280;2826;51.354;9.588;2022-11-23T04:30:17;96641.72;;;5.21;100.00
5609;BME280;2826;51.354;9.588;2022-11-23T04:32:44;96638.31;;;5.21;100.00
5609;BME280;2826;51.354;9.588;2022-11-23T04:35:13;96641.72;;;5.21;100.00
5609;BME280;2826;51.354;9.588;2022-11-23T04:37:42;96640.03;;;5.20;100.00
5609;BME280;2826;51.354;9.588;2022-11-23T04:40:10;96641.72;;;5.21;100.00
5609;BME280;2826;51.354;9.588;2022-11-23T04:42:57;96646.00;;;5.21;100.00
5609;BME280;2826;51.354;9.588;2022-11-23T04:45:24;96635.72;;;5.21;100.00
5609;BME280;2826;51.354;9.588;2022-11-23T04:47:53;96642.53;;;5.22;100.00
5609;BME280;2826;51.354;9.588;2022-11-23T04:50:23;96647.72;;;5.20;100.00
5609;BME280;2826;51.354;9.588;2022-11-23T04:52:54;96646.91;;;5.20;100.00
5609;BME280;2826;51.354;9.588;2022-11-23T04:55:27;96646.00;;;5.21;100.00
5609;BME280;2826;51.354;9.588;2022-11-23T04:57:58;96636.63;;;5.20;100.00
5609;BME280;2826;51.354;9.588;2022-11-23T05:00:28;96639.22;;;5.20;100.00
5609;BME280;2826;51.354;9.588;2022-11-23T05:02:58;96630.16;;;5.11;100.00
5609;BME280;2826;51.354;9.588;2022-11-23T05:05:28;96646.00;;;5.21;100.00
5609;BME280;2826;51.354;9.588;2022-11-23T05:07:56;96647.69;;;5.22;100.00
5609;BME280;2826;51.354;9.588;2022-11-23T05:10:31;96653.66;;;5.22;100.00
5609;BME280;2826;51.354;9.588;2022-11-23T05:12:59;96658.81;;;5.22;100.00
5609;BME280;2826;51.354;9.588;2022-11-23T05:15:28;96648.59;;;5.21;100.00
5609;BME280;2826;51.354;9.588;2022-11-23T05:18:00;96649.34;;;5.23;100.00
5609;BME280;2826;51.354;9.588;2022-11-23T05:20:27;96612.75;;;4.97;100.00
5609;BME280;2826;51.354;9.588;2022-11-23T05:22:54;96653.59;;;5.24;100.00
5609;BME280;2826;51.354;9.588;2022-11-23T05:25:23;96650.19;;;5.23;100.00
5609;BME280;2826;51.354;9.588;2022-11-23T05:27:59;96646.72;;;5.25;100.00
5609;BME280;2826;51.354;9.588;2022-11-23T05:30:27;96650.25;;;5.22;100.00
5609;BME280;2826;51.354;9.588;2022-11-23T05:32:59;96648.91;;;5.13;100.00
5609;BME280;2826;51.354;9.588;2022-11-23T05:35:27;96650.31;;;5.20;100.00
5609;BME280;2826;51.354;9.588;2022-11-23T05:37:54;96657.13;;;5.21;100.00
5609;BME280;2826;51.354;9.588;2022-11-23T05:40:21;96656.22;;;5.22;100.00
5609;BME280;2826;51.354;9.588;2022-11-23T05:42:53;96659.72;;;5.21;100.00
5609;BME280;2826;51.354;9.588;2022-11-23T05:45:23;96657.03;;;5.23;100.00
5609;BME280;2826;51.354;9.588;2022-11-23T05:47:54;96657.94;;;5.22;100.00
5609;BME280;2826;51.354;9.588;2022-11-23T05:50:44;96662.28;;;5.21;100.00
5609;BME280;2826;51.354;9.588;2022-11-23T05:53:26;96663.94;;;5.22;100.00
5609;BME280;2826;51.354;9.588;2022-11-23T05:56:01;96659.78;;;5.20;100.00
5609;BME280;2826;51.354;9.588;2022-11-23T05:58:33;96670.00;;;5.21;100.00
5609;BME280;2826;51.354;9.588;2022-11-23T06:01:01;96676.91;;;5.19;100.00
5609;BME280;2826;51.354;9.588;2022-11-23T06:03:33;96673.50;;;5.19;100.00
5609;BME280;2826;51.354;9.588;2022-11-23T06:06:01;96664.97;;;5.18;100.00
5609;BME280;2826;51.354;9.588;2022-11-23T06:08:36;96668.44;;;5.17;100.00
5609;BME280;2826;51.354;9.588;2022-11-23T06:11:03;96673.66;;;5.16;100.00
5609;BME280;2826;51.354;9.588;2022-11-23T06:13:31;96677.94;;;5.15;100.00
5609;BME280;2826;51.354;9.588;2022-11-23T06:15:58;96671.97;;;5.15;100.00
5609;BME280;2826;51.354;9.588;2022-11-23T06:18:34;96666.84;;;5.15;100.00
5609;BME280;2826;51.354;9.588;2022-11-23T06:21:01;96682.31;;;5.13;100.00
5609;BME280;2826;51.354;9.588;2022-11-23T06:23:28;96672.91;;;5.12;100.00
5609;BME280;2826;51.354;9.588;2022-11-23T06:25:58;96680.72;;;5.10;100.00
5609;BME280;2826;51.354;9.588;2022-11-23T06:28:26;96676.44;;;5.09;100.00
5609;BME280;2826;51.354;9.588;2022-11-23T06:31:00;96685.00;;;5.10;100.00
5609;BME280;2826;51.354;9.588;2022-11-23T06:33:27;96685.69;;;5.14;100.00
5609;BME280;2826;51.354;9.588;2022-11-23T06:35:57;96682.31;;;5.13;100.00
5609;BME280;2826;51.354;9.588;2022-11-23T06:38:29;96690.78;;;5.15;100.00
5609;BME280;2826;51.354;9.588;2022-11-23T06:41:01;96687.31;;;5.16;100.00
5609;BME280;2826;51.354;9.588;2022-11-23T06:43:30;96692.31;;;5.19;100.00
5609;BME280;2826;51.354;9.588;2022-11-23T06:46:02;96688.09;;;5.18;100.00
5609;BME280;2826;51.354;9.588;2022-11-23T06:48:30;96683.66;;;5.22;100.00
5609;BME280;2826;51.354;9.588;2022-11-23T06:51:00;96689.44;;;5.27;100.00
5609;BME280;2826;51.354;9.588;2022-11-23T06:53:29;96685.25;;;5.25;100.00
5609;BME280;2826;51.354;9.588;2022-11-23T06:56:03;96690.97;;;5.31;100.00
5609;BME280;2826;51.354;9.588;2022-11-23T06:58:32;96685.03;;;5.31;100.00
5609;BME280;2826;51.354;9.588;2022-11-23T07:01:04;96685.84;;;5.31;100.00
5609;BME280;2826;51.354;9.588;2022-11-23T07:03:37;96703.75;;;5.33;100.00
5609;BME280;2826;51.354;9.588;2022-11-23T07:06:16;96700.28;;;5.34;100.00
5609;BME280;2826;51.354;9.588;2022-11-23T07:08:42;96705.44;;;5.34;100.00
5609;BME280;2826;51.354;9.588;2022-11-23T07:11:27;96701.13;;;5.34;100.00
5609;BME280;2826;51.354;9.588;2022-11-23T07:13:54;96713.94;;;5.36;100.00
5609;BME280;2826;51.354;9.588;2022-11-23T07:16:25;96718.09;;;5.39;100.00
5609;BME280;2826;51.354;9.588;2022-11-23T07:18:52;96713.72;;;5.41;100.00
5609;BME280;2826;51.354;9.588;2022-11-23T07:21:20;96717.97;;;5.42;100.00
5609;BME280;2826;51.354;9.588;2022-11-23T07:23:49;96717.78;;;5.46;100.00
5609;BME280;2826;51.354;9.588;2022-11-23T07:26:15;96712.63;;;5.46;100.00
5609;BME280;2826;51.354;9.588;2022-11-23T07:28:43;96710.13;;;5.45;100.00
5609;BME280;2826;51.354;9.588;2022-11-23T07:31:11;96710.97;;;5.45;100.00
5609;BME280;2826;51.354;9.588;2022-11-23T07:33:42;96712.50;;;5.49;100.00
5609;BME280;2826;51.354;9.588;2022-11-23T07:36:10;96715.03;;;5.51;100.00
5609;BME280;2826;51.354;9.588;2022-11-23T07:38:41;96717.44;;;5.54;100.00
5609;BME280;2826;51.354;9.588;2022-11-23T07:41:08;96720.09;;;5.53;100.00
5609;BME280;2826;51.354;9.588;2022-11-23T07:43:53;96706.78;;;5.43;100.00
5609;BME280;2826;51.354;9.588;2022-11-23T07:46:20;96725.94;;;5.56;100.00
5609;BME280;2826;51.354;9.588;2022-11-23T07:48:47;96719.13;;;5.55;100.00
5609;BME280;2826;51.354;9.588;2022-11-23T07:51:14;96720.84;;;5.55;100.00
5609;BME280;2826;51.354;9.588;2022-11-23T07:53:45;96708.34;;;5.47;100.00
5609;BME280;2826;51.354;9.588;2022-11-23T07:56:12;96719.03;;;5.57;100.00
5609;BME280;2826;51.354;9.588;2022-11-23T07:58:39;96720.00;;;5.54;100.00
5609;BME280;2826;51.354;9.588;2022-11-23T08:01:06;96724.28;;;5.55;100.00
5609;BME280;2826;51.354;9.588;2022-11-23T08:03:33;96725.94;;;5.56;100.00
5609;BME280;2826;51.354;9.588;2022-11-23T08:05:59;96724.19;;;5.57;100.00
5609;BME280;2826;51.354;9.588;2022-11-23T08:08:26;96720.56;;;5.61;100.00
5609;BME280;2826;51.354;9.588;2022-11-23T08:10:54;96724.06;;;5.60;100.00
5609;BME280;2826;51.354;9.588;2022-11-23T08:13:21;96706.50;;;5.49;100.00
5609;BME280;2826;51.354;9.588;2022-11-23T08:15:49;96724.06;;;5.60;100.00
5609;BME280;2826;51.354;9.588;2022-11-23T08:18:16;96727.25;;;5.65;100.00
5609;BME280;2826;51.354;9.588;2022-11-23T08:20:43;96730.63;;;5.67;100.00
5609;BME280;2826;51.354;9.588;2022-11-23T08:23:10;96729.72;;;5.68;100.00
5609;BME280;2826;51.354;9.588;2022-11-23T08:25:37;96730.47;;;5.70;100.00
5609;BME280;2826;51.354;9.588;2022-11-23T08:28:05;96748.47;;;5.70;100.00
5609;BME280;2826;51.354;9.588;2022-11-23T08:30:32;96738.13;;;5.72;100.00
5609;BME280;2826;51.354;9.588;2022-11-23T08:33:01;96727.31;;;5.63;100.00
5609;BME280;2826;51.354;9.588;2022-11-23T08:35:29;96733.25;;;5.66;100.00
5609;BME280;2826;51.354;9.588;2022-11-23T08:37:56;96743.16;;;5.75;100.00
5609;BME280;2826;51.354;9.588;2022-11-23T08:40:22;96748.84;;;5.82;100.00
5609;BME280;2826;51.354;9.588;2022-11-23T08:42:49;96745.25;;;5.86;100.00
5609;BME280;2826;51.354;9.588;2022-11-23T08:45:18;96751.09;;;5.89;100.00
5609;BME280;2826;51.354;9.588;2022-11-23T08:47:44;96739.91;;;5.91;100.00
5609;BME280;2826;51.354;9.588;2022-11-23T08:50:11;96746.50;;;5.96;100.00
5609;BME280;2826;51.354;9.588;2022-11-23T08:52:39;96743.81;;;5.99;100.00
5609;BME280;2826;51.354;9.588;2022-11-23T08:55:06;96745.31;;;6.05;100.00
5609;BME280;2826;51.354;9.588;2022-11-23T08:57:33;96747.72;;;6.08;100.00
5609;BME280;2826;51.354;9.588;2022-11-23T09:00:00;96743.56;;;6.06;100.00
5609;BME280;2826;51.354;9.588;2022-11-23T09:02:28;96753.84;;;6.06;100.00
5609;BME280;2826;51.354;9.588;2022-11-23T09:04:55;96749.56;;;6.06;100.00
5609;BME280;2826;51.354;9.588;2022-11-23T09:07:21;96757.16;;;6.09;100.00
5609;BME280;2826;51.354;9.588;2022-11-23T09:09:48;96758.03;;;6.08;100.00
5609;BME280;2826;51.354;9.588;2022-11-23T09:12:16;96759.66;;;6.11;100.00
5609;BME280;2826;51.354;9.588;2022-11-23T09:14:43;96756.16;;;6.12;100.00
5609;BME280;2826;51.354;9.588;2022-11-23T09:17:10;96756.94;;;6.14;100.00
5609;BME280;2826;51.354;9.588;2022-11-23T09:19:39;96716.66;;;5.92;100.00
5609;BME280;2826;51.354;9.588;2022-11-23T09:22:06;96761.81;;;6.20;100.00
5609;BME280;2826;51.354;9.588;2022-11-23T09:24:33;96752.16;;;6.25;100.00
5609;BME280;2826;51.354;9.588;2022-11-23T09:27:00;96750.19;;;6.31;100.00
5609;BME280;2826;51.354;9.588;2022-11-23T09:29:27;96750.25;;;6.29;100.00
5609;BME280;2826;51.354;9.588;2022-11-23T09:31:54;96755.41;;;6.29;100.00
5609;BME280;2826;51.354;9.588;2022-11-23T09:34:21;96756.31;;;6.28;100.00
5609;BME280;2826;51.354;9.588;2022-11-23T09:36:49;96759.72;;;6.28;100.00
5609;BME280;2826;51.354;9.588;2022-11-23T13:30:20;96658.69;;;9.53;74.79
5609;BME280;2826;51.354;9.588;2022-11-23T13:32:57;96655.28;;;9.53;74.09
5609;BME280;2826;51.354;9.588;2022-11-23T13:35:51;96654.50;;;9.36;73.87
5609;BME280;2826;51.354;9.588;2022-11-23T13:38:27;96650.97;;;9.08;74.43
5609;BME280;2826;51.354;9.588;2022-11-23T13:41:01;96648.16;;;8.97;75.10
5609;BME280;2826;51.354;9.588;2022-11-23T13:43:29;96658.28;;;8.85;75.48
5609;BME280;2826;51.354;9.588;2022-11-23T13:46:19;96640.50;;;8.65;75.68
5609;BME280;2826;51.354;9.588;2022-11-23T13:48:48;96644.66;;;8.51;75.25
5609;BME280;2826;51.354;9.588;2022-11-23T13:51:22;96641.94;;;8.38;75.19
5609;BME280;2826;51.354;9.588;2022-11-23T13:53:51;96636.13;;;8.34;74.44
5609;BME280;2826;51.354;9.588;2022-11-23T13:56:29;96636.50;;;8.27;73.99
5609;BME280;2826;51.354;9.588;2022-11-23T13:58:58;96627.03;;;8.27;72.39
5609;BME280;2826;51.354;9.588;2022-11-23T14:04:42;96625.63;;;8.21;71.30
5609;BME280;2826;51.354;9.588;2022-11-23T14:07:14;96624.19;;;8.16;71.23
5609;BME280;2826;51.354;9.588;2022-11-23T14:09:44;96630.06;;;8.03;71.48
5609;BME280;2826;51.354;9.588;2022-11-23T14:12:21;96630.88;;;7.88;71.86
5609;BME280;2826;51.354;9.588;2022-11-23T14:14:57;96622.69;;;7.79;72.40
5609;BME280;2826;51.354;9.588;2022-11-23T14:17:47;96631.00;;;7.68;73.07
5609;BME280;2826;51.354;9.588;2022-11-23T14:20:27;96626.25;;;7.61;73.99
5609;BME280;2826;51.354;9.588;2022-11-23T14:23:07;96624.91;;;7.53;74.67
5609;BME280;2826;51.354;9.588;2022-11-23T14:25:47;96625.00;;;7.52;74.83
5609;BME280;2826;51.354;9.588;2022-11-23T14:28:32;96624.50;;;7.45;74.60
5609;BME280;2826;51.354;9.588;2022-11-23T14:31:09;96634.19;;;7.40;74.85
5609;BME280;2826;51.354;9.588;2022-11-23T14:33:47;96634.44;;;7.35;75.20
5609;BME280;2826;51.354;9.588;2022-11-23T14:36:24;96628.50;;;7.33;75.47
5609;BME280;2826;51.354;9.588;2022-11-23T14:41:35;96624.16;;;7.17;76.49
5609;BME280;2826;51.354;9.588;2022-11-23T14:44:11;96626.94;;;7.13;76.79
5609;BME280;2826;51.354;9.588;2022-11-23T14:47:00;96628.19;;;7.05;77.21
5609;BME280;2826;51.354;9.588;2022-11-23T14:49:29;96626.81;;;6.98;77.59
5609;BME280;2826;51.354;9.588;2022-11-23T14:51:56;96621.97;;;6.92;77.72
5609;BME280;2826;51.354;9.588;2022-11-23T14:54:24;96631.75;;;6.85;78.10
5609;BME280;2826;51.354;9.588;2022-11-23T14:56:52;96626.22;;;6.75;78.79
5609;BME280;2826;51.354;9.588;2022-11-23T14:59:23;96624.84;;;6.68;79.31
5609;BME280;2826;51.354;9.588;2022-11-23T15:01:54;96625.00;;;6.65;79.75
5609;BME280;2826;51.354;9.588;2022-11-23T15:04:24;96626.94;;;6.60;80.05
5609;BME280;2826;51.354;9.588;2022-11-23T15:06:57;96634.06;;;6.54;80.01
5609;BME280;2826;51.354;9.588;2022-11-23T15:09:37;96628.56;;;6.45;80.93
5609;BME280;2826;51.354;9.588;2022-11-23T15:12:07;96633.22;;;6.36;81.28
5609;BME280;2826;51.354;9.588;2022-11-23T15:14:34;96626.75;;;6.27;81.79
5609;BME280;2826;51.354;9.588;2022-11-23T15:17:14;96624.41;;;6.23;82.33
5609;BME280;2826;51.354;9.588;2022-11-23T15:20:00;96626.38;;;6.18;82.25
5609;BME280;2826;51.354;9.588;2022-11-23T15:22:32;96619.84;;;6.10;82.54
5609;BME280;2826;51.354;9.588;2022-11-23T15:25:05;96627.75;;;6.06;83.15
5609;BME280;2826;51.354;9.588;2022-11-23T15:27:37;96620.16;;;6.03;82.81
5609;BME280;2826;51.354;9.588;2022-11-23T15:32:42;96614.97;;;6.04;82.33
5609;BME280;2826;51.354;9.588;2022-11-23T15:35:11;96616.72;;;6.04;82.30
5609;BME280;2826;51.354;9.588;2022-11-23T15:37:42;96618.56;;;6.00;82.45
5609;BME280;2826;51.354;9.588;2022-11-23T15:40:12;96616.19;;;5.95;82.14
5609;BME280;2826;51.354;9.588;2022-11-23T15:42:41;96621.63;;;5.89;82.78
5609;BME280;2826;51.354;9.588;2022-11-23T15:45:33;96620.25;;;5.82;83.37
5609;BME280;2826;51.354;9.588;2022-11-23T15:48:01;96617.25;;;5.72;83.93
5609;BME280;2826;51.354;9.588;2022-11-23T15:50:28;96608.91;;;5.67;84.49
5609;BME280;2826;51.354;9.588;2022-11-23T15:52:59;96604.78;;;5.62;84.68
5609;BME280;2826;51.354;9.588;2022-11-23T15:55:28;96606.81;;;5.56;85.19
5609;BME280;2826;51.354;9.588;2022-11-23T15:57:56;96609.66;;;5.49;85.59
5609;BME280;2826;51.354;9.588;2022-11-23T16:00:24;96613.47;;;5.41;86.64
5609;BME280;2826;51.354;9.588;2022-11-23T16:02:51;96606.03;;;5.34;86.71
5609;BME280;2826;51.354;9.588;2022-11-23T16:05:20;96620.75;;;5.31;86.71
5609;BME280;2826;51.354;9.588;2022-11-23T16:07:52;96619.16;;;5.28;87.14
5609;BME280;2826;51.354;9.588;2022-11-23T16:10:22;96625.13;;;5.29;87.39
5609;BME280;2826;51.354;9.588;2022-11-23T16:12:52;96625.19;;;5.27;86.91
5609;BME280;2826;51.354;9.588;2022-11-23T16:15:35;96628.59;;;5.28;86.70
5609;BME280;2826;51.354;9.588;2022-11-23T16:18:17;96639.72;;;5.28;86.71
5609;BME280;2826;51.354;9.588;2022-11-23T16:20:47;96629.75;;;5.20;86.55
5609;BME280;2826;51.354;9.588;2022-11-23T16:23:18;96633.09;;;5.22;86.43
5609;BME280;2826;51.354;9.588;2022-11-23T16:25:52;96637.41;;;5.22;86.74
5609;BME280;2826;51.354;9.588;2022-11-23T16:28:25;96639.97;;;5.22;86.17
5609;BME280;2826;51.354;9.588;2022-11-23T16:30:53;96643.44;;;5.21;86.01
5609;BME280;2826;51.354;9.588;2022-11-23T16:33:21;96649.50;;;5.20;86.15
5609;BME280;2826;51.354;9.588;2022-11-23T16:35:48;96650.47;;;5.17;85.89
5609;BME280;2826;51.354;9.588;2022-11-23T16:38:15;96646.34;;;5.13;85.92
5609;BME280;2826;51.354;9.588;2022-11-23T16:40:42;96654.06;;;5.13;86.02
5609;BME280;2826;51.354;9.588;2022-11-23T16:43:12;96649.03;;;5.10;85.89
5609;BME280;2826;51.354;9.588;2022-11-23T16:45:41;96659.03;;;5.16;85.49
5609;BME280;2826;51.354;9.588;2022-11-23T16:48:35;96667.66;;;5.15;84.81
5609;BME280;2826;51.354;9.588;2022-11-23T16:51:02;96663.44;;;5.14;84.71
5609;BME280;2826;51.354;9.588;2022-11-23T16:53:29;96627.84;;;4.84;84.17
5609;BME280;2826;51.354;9.588;2022-11-23T16:55:57;96674.59;;;5.13;84.32
5609;BME280;2826;51.354;9.588;2022-11-23T16:58:29;96678.22;;;5.09;84.13
5609;BME280;2826;51.354;9.588;2022-11-23T17:00:58;96679.88;;;5.10;83.71
5609;BME280;2826;51.354;9.588;2022-11-23T17:03:25;96677.34;;;5.08;83.47
5609;BME280;2826;51.354;9.588;2022-11-23T17:05:54;96670.81;;;5.01;83.43
5609;BME280;2826;51.354;9.588;2022-11-23T17:08:21;96678.44;;;5.03;83.40
5609;BME280;2826;51.354;9.588;2022-11-23T17:10:48;96682.81;;;5.01;83.66
5609;BME280;2826;51.354;9.588;2022-11-23T17:13:20;96684.53;;;5.00;83.55
5609;BME280;2826;51.354;9.588;2022-11-23T17:15:50;96690.66;;;4.97;83.63
5609;BME280;2826;51.354;9.588;2022-11-23T17:18:17;96695.03;;;4.95;83.47
5609;BME280;2826;51.354;9.588;2022-11-23T17:20:47;96705.16;;;4.99;83.37
5609;BME280;2826;51.354;9.588;2022-11-23T17:23:14;96709.47;;;4.98;83.41
5609;BME280;2826;51.354;9.588;2022-11-23T17:25:41;96708.63;;;4.97;82.78
5609;BME280;2826;51.354;9.588;2022-11-23T17:28:12;96713.81;;;4.96;83.04
5609;BME280;2826;51.354;9.588;2022-11-23T17:30:40;96721.53;;;4.96;82.95
5609;BME280;2826;51.354;9.588;2022-11-23T17:33:10;96717.25;;;4.96;83.44
5609;BME280;2826;51.354;9.588;2022-11-23T17:35:38;96724.09;;;4.96;83.23
5609;BME280;2826;51.354;9.588;2022-11-23T17:38:11;96729.31;;;4.94;83.72
5609;BME280;2826;51.354;9.588;2022-11-23T17:40:39;96742.06;;;4.96;83.83